sensor_id;sensor_type;location;lat;lon;timestamp;P1;durP1;ratioP1;P2;durP2;ratioP2
17812;SDS011;9030;50.792;8.320;2022-12-07T00:00:02;72.40;;;51.80;;
17812;SDS011;9030;50.792;8.320;2022-12-07T00:02:30;58.07;;;46.47;;
17812;SDS011;9030;50.792;8.320;2022-12-07T00:04:58;53.47;;;42.90;;
17812;SDS011;9030;50.792;8.320;2022-12-07T00:07:25;51.40;;;42.47;;
17812;SDS011;9030;50.792;8.320;2022-12-07T00:09:52;47.37;;;39.37;;
17812;SDS011;9030;50.792;8.320;2022-12-07T00:12:20;51.67;;;40.67;;
17812;SDS011;9030;50.792;8.320;2022-12-07T00:14:47;49.97;;;40.07;;
17812;SDS011;9030;50.792;8.320;2022-12-07T00:17:14;45.20;;;39.83;;
17812;SDS011;9030;50.792;8.320;2022-12-07T00:19:41;42.20;;;37.40;;
17812;SDS011;9030;50.792;8.320;2022-12-07T00:22:09;40.47;;;36.03;;
17812;SDS011;9030;50.792;8.320;2022-12-07T00:24:36;43.70;;;35.03;;
17812;SDS011;9030;50.792;8.320;2022-12-07T00:27:03;51.27;;;39.77;;
17812;SDS011;9030;50.792;8.320;2022-12-07T00:29:30;46.50;;;36.33;;
17812;SDS011;9030;50.792;8.320;2022-12-07T00:31:57;37.30;;;33.03;;
17812;SDS011;9030;50.792;8.320;2022-12-07T00:34:24;53.80;;;39.33;;
17812;SDS011;9030;50.792;8.320;2022-12-07T00:36:51;54.83;;;39.83;;
17812;SDS011;9030;50.792;8.320;2022-12-07T00:39:19;55.53;;;38.33;;
17812;SDS011;9030;50.792;8.320;2022-12-07T00:41:46;55.00;;;40.43;;
17812;SDS011;9030;50.792;8.320;2022-12-07T00:44:14;41.53;;;37.23;;
17812;SDS011;9030;50.792;8.320;2022-12-07T00:46:41;42.67;;;32.23;;
17812;SDS011;9030;50.792;8.320;2022-12-07T00:49:08;52.03;;;36.70;;
17812;SDS011;9030;50.792;8.320;2022-12-07T00:51:35;35.50;;;30.40;;
17812;SDS011;9030;50.792;8.320;2022-12-07T00:54:02;49.43;;;38.53;;
17812;SDS011;9030;50.792;8.320;2022-12-07T00:56:30;34.60;;;28.77;;
17812;SDS011;9030;50.792;8.320;2022-12-07T00:58:58;33.67;;;29.83;;
17812;SDS011;9030;50.792;8.320;2022-12-07T01:01:26;37.80;;;31.30;;
17812;SDS011;9030;50.792;8.320;2022-12-07T01:03:53;59.10;;;42.47;;
17812;SDS011;9030;50.792;8.320;2022-12-07T01:06:21;31.73;;;27.90;;
17812;SDS011;9030;50.792;8.320;2022-12-07T01:08:49;36.00;;;31.50;;
17812;SDS011;9030;50.792;8.320;2022-12-07T01:11:17;31.60;;;28.00;;
17812;SDS011;9030;50.792;8.320;2022-12-07T01:13:46;37.87;;;30.57;;
17812;SDS011;9030;50.792;8.320;2022-12-07T01:16:14;32.50;;;28.73;;
17812;SDS011;9030;50.792;8.320;2022-12-07T01:18:42;26.87;;;23.93;;
17812;SDS011;9030;50.792;8.320;2022-12-07T01:21:10;33.93;;;29.30;;
17812;SDS011;9030;50.792;8.320;2022-12-07T01:23:38;36.37;;;29.50;;
17812;SDS011;9030;50.792;8.320;2022-12-07T01:26:06;39.90;;;30.80;;
17812;SDS011;9030;50.792;8.320;2022-12-07T01:28:33;30.57;;;27.27;;
17812;SDS011;9030;50.792;8.320;2022-12-07T01:31:02;31.17;;;26.77;;
17812;SDS011;9030;50.792;8.320;2022-12-07T01:33:31;29.43;;;25.43;;
17812;SDS011;9030;50.792;8.320;2022-12-07T01:36:01;34.20;;;27.47;;
17812;SDS011;9030;50.792;8.320;2022-12-07T01:38:30;31.00;;;24.33;;
17812;SDS011;9030;50.792;8.320;2022-12-07T01:40:57;29.60;;;26.37;;
17812;SDS011;9030;50.792;8.320;2022-12-07T01:43:26;34.27;;;29.07;;
17812;SDS011;9030;50.792;8.320;2022-12-07T01:45:53;46.77;;;35.87;;
17812;SDS011;9030;50.792;8.320;2022-12-07T01:48:23;43.03;;;34.83;;
17812;SDS011;9030;50.792;8.320;2022-12-07T01:50:51;37.27;;;32.10;;
17812;SDS011;9030;50.792;8.320;2022-12-07T01:53:20;58.27;;;37.33;;
17812;SDS011;9030;50.792;8.320;2022-12-07T01:55:49;47.23;;;35.73;;
17812;SDS011;9030;50.792;8.320;2022-12-07T01:58:18;35.27;;;31.47;;
17812;SDS011;9030;50.792;8.320;2022-12-07T02:00:46;34.37;;;30.53;;
17812;SDS011;9030;50.792;8.320;2022-12-07T02:03:14;47.90;;;37.30;;
17812;SDS011;9030;50.792;8.320;2022-12-07T02:05:46;43.50;;;35.77;;
17812;SDS011;9030;50.792;8.320;2022-12-07T02:08:13;35.23;;;30.53;;
17812;SDS011;9030;50.792;8.320;2022-12-07T02:10:41;33.13;;;29.57;;
17812;SDS011;9030;50.792;8.320;2022-12-07T02:13:09;29.13;;;25.97;;
17812;SDS011;9030;50.792;8.320;2022-12-07T02:15:46;30.93;;;27.57;;
17812;SDS011;9030;50.792;8.320;2022-12-07T02:18:20;40.97;;;33.50;;
17812;SDS011;9030;50.792;8.320;2022-12-07T02:20:53;36.07;;;32.33;;
17812;SDS011;9030;50.792;8.320;2022-12-07T02:23:29;33.00;;;29.10;;
17812;SDS011;9030;50.792;8.320;2022-12-07T02:26:19;32.53;;;29.17;;
17812;SDS011;9030;50.792;8.320;2022-12-07T02:28:58;33.17;;;27.43;;
17812;SDS011;9030;50.792;8.320;2022-12-07T02:31:30;33.43;;;27.90;;
17812;SDS011;9030;50.792;8.320;2022-12-07T02:34:00;32.10;;;26.97;;
17812;SDS011;9030;50.792;8.320;2022-12-07T02:36:32;31.57;;;27.67;;
17812;SDS011;9030;50.792;8.320;2022-12-07T02:39:02;31.23;;;27.10;;
17812;SDS011;9030;50.792;8.320;2022-12-07T02:41:33;29.37;;;25.77;;
17812;SDS011;9030;50.792;8.320;2022-12-07T02:44:04;34.77;;;30.43;;
17812;SDS011;9030;50.792;8.320;2022-12-07T02:46:34;29.50;;;26.33;;
17812;SDS011;9030;50.792;8.320;2022-12-07T02:49:03;28.07;;;24.97;;
17812;SDS011;9030;50.792;8.320;2022-12-07T02:51:30;33.80;;;30.03;;
17812;SDS011;9030;50.792;8.320;2022-12-07T02:53:58;39.67;;;30.43;;
17812;SDS011;9030;50.792;8.320;2022-12-07T02:56:26;31.73;;;28.10;;
17812;SDS011;9030;50.792;8.320;2022-12-07T02:58:59;27.43;;;24.17;;
17812;SDS011;9030;50.792;8.320;2022-12-07T03:01:30;29.13;;;26.03;;
17812;SDS011;9030;50.792;8.320;2022-12-07T03:04:07;37.57;;;30.27;;
17812;SDS011;9030;50.792;8.320;2022-12-07T03:06:40;32.53;;;26.23;;
17812;SDS011;9030;50.792;8.320;2022-12-07T03:09:11;27.27;;;24.43;;
17812;SDS011;9030;50.792;8.320;2022-12-07T03:11:42;28.40;;;25.47;;
17812;SDS011;9030;50.792;8.320;2022-12-07T03:14:13;35.70;;;28.87;;
17812;SDS011;9030;50.792;8.320;2022-12-07T03:16:45;42.23;;;31.30;;
17812;SDS011;9030;50.792;8.320;2022-12-07T03:19:14;37.77;;;28.80;;
17812;SDS011;9030;50.792;8.320;2022-12-07T03:21:44;27.00;;;22.43;;
17812;SDS011;9030;50.792;8.320;2022-12-07T03:24:14;23.57;;;20.13;;
17812;SDS011;9030;50.792;8.320;2022-12-07T03:26:44;32.83;;;26.53;;
17812;SDS011;9030;50.792;8.320;2022-12-07T03:29:14;32.17;;;26.83;;
17812;SDS011;9030;50.792;8.320;2022-12-07T03:31:46;33.53;;;26.57;;
17812;SDS011;9030;50.792;8.320;2022-12-07T03:34:15;23.10;;;20.10;;
17812;SDS011;9030;50.792;8.320;2022-12-07T03:36:43;28.83;;;22.33;;
17812;SDS011;9030;50.792;8.320;2022-12-07T03:39:13;24.27;;;19.47;;
17812;SDS011;9030;50.792;8.320;2022-12-07T03:41:44;22.90;;;20.10;;
17812;SDS011;9030;50.792;8.320;2022-12-07T03:44:12;26.13;;;22.47;;
17812;SDS011;9030;50.792;8.320;2022-12-07T03:46:41;24.07;;;20.53;;
17812;SDS011;9030;50.792;8.320;2022-12-07T03:49:12;26.70;;;22.43;;
17812;SDS011;9030;50.792;8.320;2022-12-07T03:51:44;27.00;;;23.60;;
17812;SDS011;9030;50.792;8.320;2022-12-07T03:54:13;26.73;;;22.53;;
17812;SDS011;9030;50.792;8.320;2022-12-07T03:56:41;31.47;;;26.33;;
17812;SDS011;9030;50.792;8.320;2022-12-07T03:59:11;39.50;;;30.80;;
17812;SDS011;9030;50.792;8.320;2022-12-07T04:01:51;33.50;;;26.53;;
17812;SDS011;9030;50.792;8.320;2022-12-07T04:04:28;30.27;;;26.43;;
17812;SDS011;9030;50.792;8.320;2022-12-07T04:07:21;34.73;;;27.40;;
17812;SDS011;9030;50.792;8.320;2022-12-07T04:09:59;29.50;;;24.97;;
17812;SDS011;9030;50.792;8.320;2022-12-07T04:12:41;36.13;;;28.17;;
17812;SDS011;9030;50.792;8.320;2022-12-07T04:15:18;36.03;;;28.63;;
17812;SDS011;9030;50.792;8.320;2022-12-07T04:17:45;28.93;;;25.93;;
17812;SDS011;9030;50.792;8.320;2022-12-07T04:20:13;29.97;;;24.83;;
17812;SDS011;9030;50.792;8.320;2022-12-07T04:22:41;31.03;;;26.67;;
17812;SDS011;9030;50.792;8.320;2022-12-07T04:25:08;34.03;;;29.83;;
17812;SDS011;9030;50.792;8.320;2022-12-07T04:27:35;34.33;;;28.90;;
17812;SDS011;9030;50.792;8.320;2022-12-07T04:30:03;37.53;;;29.80;;
17812;SDS011;9030;50.792;8.320;2022-12-07T04:32:30;36.30;;;30.83;;
17812;SDS011;9030;50.792;8.320;2022-12-07T04:34:57;32.73;;;27.77;;
17812;SDS011;9030;50.792;8.320;2022-12-07T04:37:25;38.87;;;31.70;;
17812;SDS011;9030;50.792;8.320;2022-12-07T04:39:53;39.13;;;31.83;;
17812;SDS011;9030;50.792;8.320;2022-12-07T04:42:20;33.50;;;28.67;;
17812;SDS011;9030;50.792;8.320;2022-12-07T04:44:47;30.40;;;25.40;;
17812;SDS011;9030;50.792;8.320;2022-12-07T04:47:14;29.27;;;22.63;;
17812;SDS011;9030;50.792;8.320;2022-12-07T04:49:41;31.43;;;26.47;;
17812;SDS011;9030;50.792;8.320;2022-12-07T04:52:08;30.00;;;25.63;;
17812;SDS011;9030;50.792;8.320;2022-12-07T04:54:37;32.77;;;23.07;;
17812;SDS011;9030;50.792;8.320;2022-12-07T04:57:07;28.90;;;23.97;;
17812;SDS011;9030;50.792;8.320;2022-12-07T04:59:51;33.13;;;26.43;;
17812;SDS011;9030;50.792;8.320;2022-12-07T05:02:18;29.90;;;25.63;;
17812;SDS011;9030;50.792;8.320;2022-12-07T05:04:45;24.00;;;21.30;;
17812;SDS011;9030;50.792;8.320;2022-12-07T05:07:12;27.63;;;22.63;;
17812;SDS011;9030;50.792;8.320;2022-12-07T05:09:41;31.60;;;26.27;;
17812;SDS011;9030;50.792;8.320;2022-12-07T05:12:08;32.37;;;28.87;;
17812;SDS011;9030;50.792;8.320;2022-12-07T05:14:36;30.73;;;27.50;;
17812;SDS011;9030;50.792;8.320;2022-12-07T05:17:03;31.03;;;26.43;;
17812;SDS011;9030;50.792;8.320;2022-12-07T05:19:30;29.13;;;23.87;;
17812;SDS011;9030;50.792;8.320;2022-12-07T05:21:57;26.10;;;23.33;;
17812;SDS011;9030;50.792;8.320;2022-12-07T05:24:25;33.07;;;26.60;;
17812;SDS011;9030;50.792;8.320;2022-12-07T05:26:53;32.37;;;27.67;;
17812;SDS011;9030;50.792;8.320;2022-12-07T05:29:20;34.43;;;30.73;;
17812;SDS011;9030;50.792;8.320;2022-12-07T05:31:47;30.33;;;24.47;;
17812;SDS011;9030;50.792;8.320;2022-12-07T05:34:14;31.37;;;24.63;;
17812;SDS011;9030;50.792;8.320;2022-12-07T05:36:41;26.33;;;22.53;;
17812;SDS011;9030;50.792;8.320;2022-12-07T05:39:09;30.47;;;26.70;;
17812;SDS011;9030;50.792;8.320;2022-12-07T05:41:36;28.97;;;23.40;;
17812;SDS011;9030;50.792;8.320;2022-12-07T05:44:23;27.63;;;23.17;;
17812;SDS011;9030;50.792;8.320;2022-12-07T05:46:50;26.50;;;20.57;;
17812;SDS011;9030;50.792;8.320;2022-12-07T05:49:17;22.57;;;18.30;;
17812;SDS011;9030;50.792;8.320;2022-12-07T05:51:44;43.33;;;35.47;;
17812;SDS011;9030;50.792;8.320;2022-12-07T05:54:11;21.07;;;14.13;;
17812;SDS011;9030;50.792;8.320;2022-12-07T05:56:38;17.93;;;13.47;;
17812;SDS011;9030;50.792;8.320;2022-12-07T05:59:05;36.23;;;27.67;;
17812;SDS011;9030;50.792;8.320;2022-12-07T06:01:53;38.53;;;30.97;;
17812;SDS011;9030;50.792;8.320;2022-12-07T06:04:21;32.03;;;25.23;;
17812;SDS011;9030;50.792;8.320;2022-12-07T06:06:49;18.43;;;13.57;;
17812;SDS011;9030;50.792;8.320;2022-12-07T06:09:16;70.03;;;49.47;;
17812;SDS011;9030;50.792;8.320;2022-12-07T06:11:43;42.37;;;29.77;;
17812;SDS011;9030;50.792;8.320;2022-12-07T06:14:28;18.23;;;13.70;;
17812;SDS011;9030;50.792;8.320;2022-12-07T06:16:57;99.70;;;73.07;;
17812;SDS011;9030;50.792;8.320;2022-12-07T06:19:24;62.57;;;46.27;;
17812;SDS011;9030;50.792;8.320;2022-12-07T06:21:51;137.43;;;92.07;;
17812;SDS011;9030;50.792;8.320;2022-12-07T06:24:18;193.03;;;130.27;;
17812;SDS011;9030;50.792;8.320;2022-12-07T06:26:46;36.30;;;26.33;;
17812;SDS011;9030;50.792;8.320;2022-12-07T06:29:13;75.80;;;53.93;;
17812;SDS011;9030;50.792;8.320;2022-12-07T06:31:41;29.07;;;23.13;;
17812;SDS011;9030;50.792;8.320;2022-12-07T06:34:10;26.20;;;21.03;;
17812;SDS011;9030;50.792;8.320;2022-12-07T06:36:38;40.23;;;30.60;;
17812;SDS011;9030;50.792;8.320;2022-12-07T06:39:05;67.40;;;48.50;;
17812;SDS011;9030;50.792;8.320;2022-12-07T06:41:34;32.73;;;23.77;;
17812;SDS011;9030;50.792;8.320;2022-12-07T06:44:01;28.63;;;23.43;;
17812;SDS011;9030;50.792;8.320;2022-12-07T06:46:28;81.17;;;57.20;;
17812;SDS011;9030;50.792;8.320;2022-12-07T06:48:55;38.37;;;30.30;;
17812;SDS011;9030;50.792;8.320;2022-12-07T06:51:24;53.23;;;38.07;;
17812;SDS011;9030;50.792;8.320;2022-12-07T06:53:51;85.90;;;63.17;;
17812;SDS011;9030;50.792;8.320;2022-12-07T06:56:18;46.53;;;36.17;;
17812;SDS011;9030;50.792;8.320;2022-12-07T06:59:09;139.57;;;104.20;;
17812;SDS011;9030;50.792;8.320;2022-12-07T07:01:36;37.87;;;25.73;;
17812;SDS011;9030;50.792;8.320;2022-12-07T07:04:05;43.87;;;33.73;;
17812;SDS011;9030;50.792;8.320;2022-12-07T07:06:34;129.53;;;91.00;;
17812;SDS011;9030;50.792;8.320;2022-12-07T07:09:01;36.83;;;26.53;;
17812;SDS011;9030;50.792;8.320;2022-12-07T07:11:28;32.80;;;25.83;;
17812;SDS011;9030;50.792;8.320;2022-12-07T07:13:55;38.27;;;26.13;;
17812;SDS011;9030;50.792;8.320;2022-12-07T07:16:27;32.57;;;25.23;;
17812;SDS011;9030;50.792;8.320;2022-12-07T07:18:54;37.00;;;25.00;;
17812;SDS011;9030;50.792;8.320;2022-12-07T07:21:22;29.93;;;22.63;;
17812;SDS011;9030;50.792;8.320;2022-12-07T07:23:50;40.13;;;28.57;;
17812;SDS011;9030;50.792;8.320;2022-12-07T07:26:17;30.47;;;26.37;;
17812;SDS011;9030;50.792;8.320;2022-12-07T07:28:45;35.77;;;26.17;;
17812;SDS011;9030;50.792;8.320;2022-12-07T07:31:12;38.60;;;26.87;;
17812;SDS011;9030;50.792;8.320;2022-12-07T07:33:39;50.57;;;37.27;;
17812;SDS011;9030;50.792;8.320;2022-12-07T07:36:06;36.83;;;31.07;;
17812;SDS011;9030;50.792;8.320;2022-12-07T07:38:33;49.23;;;40.73;;
17812;SDS011;9030;50.792;8.320;2022-12-07T07:41:02;43.80;;;35.07;;
17812;SDS011;9030;50.792;8.320;2022-12-07T07:43:29;52.93;;;44.80;;
17812;SDS011;9030;50.792;8.320;2022-12-07T07:45:56;54.80;;;43.47;;
17812;SDS011;9030;50.792;8.320;2022-12-07T07:48:26;61.37;;;49.73;;
17812;SDS011;9030;50.792;8.320;2022-12-07T07:50:56;51.70;;;40.10;;
17812;SDS011;9030;50.792;8.320;2022-12-07T07:53:24;54.30;;;43.43;;
17812;SDS011;9030;50.792;8.320;2022-12-07T07:55:51;60.07;;;48.70;;
17812;SDS011;9030;50.792;8.320;2022-12-07T07:58:20;49.43;;;41.13;;
17812;SDS011;9030;50.792;8.320;2022-12-07T08:00:48;68.93;;;57.10;;
17812;SDS011;9030;50.792;8.320;2022-12-07T08:03:15;54.77;;;46.53;;
17812;SDS011;9030;50.792;8.320;2022-12-07T08:05:42;73.67;;;53.30;;
17812;SDS011;9030;50.792;8.320;2022-12-07T08:08:09;52.83;;;47.17;;
17812;SDS011;9030;50.792;8.320;2022-12-07T08:10:36;46.97;;;42.07;;
17812;SDS011;9030;50.792;8.320;2022-12-07T08:13:03;62.90;;;51.57;;
17812;SDS011;9030;50.792;8.320;2022-12-07T08:15:40;49.97;;;44.13;;
17812;SDS011;9030;50.792;8.320;2022-12-07T08:18:07;46.70;;;37.40;;
17812;SDS011;9030;50.792;8.320;2022-12-07T08:20:35;46.83;;;41.17;;
17812;SDS011;9030;50.792;8.320;2022-12-07T08:23:02;48.40;;;39.97;;
17812;SDS011;9030;50.792;8.320;2022-12-07T08:25:30;35.87;;;28.10;;
17812;SDS011;9030;50.792;8.320;2022-12-07T08:27:58;39.43;;;28.83;;
17812;SDS011;9030;50.792;8.320;2022-12-07T08:30:27;34.60;;;27.37;;
17812;SDS011;9030;50.792;8.320;2022-12-07T08:33:02;34.73;;;24.70;;
17812;SDS011;9030;50.792;8.320;2022-12-07T08:35:46;37.40;;;22.27;;
17812;SDS011;9030;50.792;8.320;2022-12-07T08:38:18;47.50;;;26.60;;
17812;SDS011;9030;50.792;8.320;2022-12-07T08:40:52;102.57;;;35.20;;
17812;SDS011;9030;50.792;8.320;2022-12-07T08:43:19;49.77;;;26.63;;
17812;SDS011;9030;50.792;8.320;2022-12-07T08:45:47;35.67;;;22.50;;
17812;SDS011;9030;50.792;8.320;2022-12-07T08:48:16;25.43;;;18.37;;
17812;SDS011;9030;50.792;8.320;2022-12-07T08:50:47;25.90;;;18.70;;
17812;SDS011;9030;50.792;8.320;2022-12-07T08:53:14;28.83;;;17.90;;
17812;SDS011;9030;50.792;8.320;2022-12-07T08:55:41;35.77;;;24.63;;
17812;SDS011;9030;50.792;8.320;2022-12-07T08:58:13;35.30;;;24.77;;
17812;SDS011;9030;50.792;8.320;2022-12-07T09:01:04;30.60;;;24.23;;
17812;SDS011;9030;50.792;8.320;2022-12-07T09:03:32;20.70;;;15.73;;
17812;SDS011;9030;50.792;8.320;2022-12-07T09:05:59;24.53;;;14.23;;
17812;SDS011;9030;50.792;8.320;2022-12-07T09:08:28;23.07;;;16.53;;
17812;SDS011;9030;50.792;8.320;2022-12-07T09:10:56;27.00;;;15.10;;
17812;SDS011;9030;50.792;8.320;2022-12-07T09:13:24;19.73;;;14.07;;
17812;SDS011;9030;50.792;8.320;2022-12-07T09:15:51;26.00;;;16.77;;
17812;SDS011;9030;50.792;8.320;2022-12-07T09:18:18;21.37;;;15.17;;
17812;SDS011;9030;50.792;8.320;2022-12-07T09:20:47;25.07;;;15.67;;
17812;SDS011;9030;50.792;8.320;2022-12-07T09:23:14;21.23;;;14.63;;
17812;SDS011;9030;50.792;8.320;2022-12-07T09:25:41;23.53;;;14.83;;
17812;SDS011;9030;50.792;8.320;2022-12-07T09:28:08;22.60;;;16.60;;
17812;SDS011;9030;50.792;8.320;2022-12-07T09:30:35;23.47;;;15.47;;
17812;SDS011;9030;50.792;8.320;2022-12-07T09:33:03;20.17;;;11.07;;
17812;SDS011;9030;50.792;8.320;2022-12-07T09:35:30;21.00;;;14.63;;
17812;SDS011;9030;50.792;8.320;2022-12-07T09:37:59;17.90;;;12.63;;
17812;SDS011;9030;50.792;8.320;2022-12-07T09:40:26;20.90;;;14.50;;
17812;SDS011;9030;50.792;8.320;2022-12-07T09:42:54;20.93;;;14.37;;
17812;SDS011;9030;50.792;8.320;2022-12-07T09:45:22;18.70;;;12.97;;
17812;SDS011;9030;50.792;8.320;2022-12-07T09:47:50;21.40;;;11.23;;
17812;SDS011;9030;50.792;8.320;2022-12-07T09:50:19;22.60;;;13.70;;
17812;SDS011;9030;50.792;8.320;2022-12-07T09:52:47;20.03;;;11.80;;
17812;SDS011;9030;50.792;8.320;2022-12-07T09:55:16;18.93;;;11.63;;
17812;SDS011;9030;50.792;8.320;2022-12-07T09:57:45;22.07;;;15.30;;
17812;SDS011;9030;50.792;8.320;2022-12-07T10:00:13;18.23;;;12.40;;
17812;SDS011;9030;50.792;8.320;2022-12-07T10:02:42;17.27;;;12.20;;
17812;SDS011;9030;50.792;8.320;2022-12-07T10:05:12;19.83;;;11.13;;
17812;SDS011;9030;50.792;8.320;2022-12-07T10:07:40;15.10;;;10.63;;
17812;SDS011;9030;50.792;8.320;2022-12-07T10:10:12;17.60;;;11.33;;
17812;SDS011;9030;50.792;8.320;2022-12-07T10:12:53;21.90;;;14.57;;
17812;SDS011;9030;50.792;8.320;2022-12-07T10:15:20;21.07;;;13.00;;
17812;SDS011;9030;50.792;8.320;2022-12-07T10:17:47;15.50;;;11.33;;
17812;SDS011;9030;50.792;8.320;2022-12-07T10:20:17;18.57;;;12.03;;
17812;SDS011;9030;50.792;8.320;2022-12-07T10:22:55;18.87;;;12.10;;
17812;SDS011;9030;50.792;8.320;2022-12-07T10:25:23;16.87;;;10.33;;
17812;SDS011;9030;50.792;8.320;2022-12-07T10:28:01;19.00;;;12.60;;
17812;SDS011;9030;50.792;8.320;2022-12-07T10:30:29;18.33;;;12.10;;
17812;SDS011;9030;50.792;8.320;2022-12-07T10:32:56;16.07;;;11.13;;
17812;SDS011;9030;50.792;8.320;2022-12-07T10:35:24;18.00;;;11.40;;
17812;SDS011;9030;50.792;8.320;2022-12-07T10:37:52;13.33;;;9.80;;
17812;SDS011;9030;50.792;8.320;2022-12-07T10:40:31;16.43;;;11.27;;
17812;SDS011;9030;50.792;8.320;2022-12-07T10:43:16;12.70;;;7.83;;
17812;SDS011;9030;50.792;8.320;2022-12-07T10:48:33;13.53;;;8.23;;
17812;SDS011;9030;50.792;8.320;2022-12-07T10:51:16;15.27;;;8.23;;
17812;SDS011;9030;50.792;8.320;2022-12-07T10:54:03;14.73;;;8.13;;
17812;SDS011;9030;50.792;8.320;2022-12-07T10:56:40;17.20;;;6.87;;
17812;SDS011;9030;50.792;8.320;2022-12-07T10:59:24;17.03;;;5.60;;
17812;SDS011;9030;50.792;8.320;2022-12-07T11:01:57;15.90;;;5.87;;
17812;SDS011;9030;50.792;8.320;2022-12-07T11:04:29;18.67;;;6.93;;
17812;SDS011;9030;50.792;8.320;2022-12-07T11:07:00;13.10;;;5.53;;
17812;SDS011;9030;50.792;8.320;2022-12-07T11:09:33;13.03;;;5.70;;
17812;SDS011;9030;50.792;8.320;2022-12-07T11:12:04;12.83;;;5.10;;
17812;SDS011;9030;50.792;8.320;2022-12-07T11:14:37;18.50;;;5.90;;
17812;SDS011;9030;50.792;8.320;2022-12-07T11:17:12;11.33;;;5.13;;
17812;SDS011;9030;50.792;8.320;2022-12-07T11:20:12;13.50;;;5.07;;
17812;SDS011;9030;50.792;8.320;2022-12-07T11:23:03;9.97;;;4.30;;
17812;SDS011;9030;50.792;8.320;2022-12-07T11:25:32;13.30;;;5.93;;
17812;SDS011;9030;50.792;8.320;2022-12-07T11:28:06;12.80;;;6.97;;
17812;SDS011;9030;50.792;8.320;2022-12-07T11:30:42;11.03;;;6.23;;
17812;SDS011;9030;50.792;8.320;2022-12-07T11:33:12;14.30;;;6.23;;
17812;SDS011;9030;50.792;8.320;2022-12-07T11:35:45;20.33;;;7.93;;
17812;SDS011;9030;50.792;8.320;2022-12-07T11:38:14;13.67;;;6.77;;
17812;SDS011;9030;50.792;8.320;2022-12-07T11:40:45;16.53;;;7.07;;
17812;SDS011;9030;50.792;8.320;2022-12-07T11:43:15;17.23;;;7.87;;
17812;SDS011;9030;50.792;8.320;2022-12-07T11:45:47;14.70;;;8.37;;
17812;SDS011;9030;50.792;8.320;2022-12-07T11:48:19;15.57;;;6.60;;
17812;SDS011;9030;50.792;8.320;2022-12-07T11:50:50;12.90;;;6.23;;
17812;SDS011;9030;50.792;8.320;2022-12-07T11:53:20;22.43;;;8.60;;
17812;SDS011;9030;50.792;8.320;2022-12-07T11:55:49;17.17;;;7.07;;
17812;SDS011;9030;50.792;8.320;2022-12-07T11:58:23;16.63;;;6.90;;
17812;SDS011;9030;50.792;8.320;2022-12-07T12:01:01;14.83;;;7.13;;
17812;SDS011;9030;50.792;8.320;2022-12-07T12:03:35;22.30;;;9.40;;
17812;SDS011;9030;50.792;8.320;2022-12-07T12:06:05;19.33;;;9.70;;
17812;SDS011;9030;50.792;8.320;2022-12-07T12:08:33;20.50;;;9.70;;
17812;SDS011;9030;50.792;8.320;2022-12-07T12:11:03;16.77;;;9.07;;
17812;SDS011;9030;50.792;8.320;2022-12-07T12:13:55;19.00;;;8.73;;
17812;SDS011;9030;50.792;8.320;2022-12-07T12:16:41;17.33;;;9.37;;
17812;SDS011;9030;50.792;8.320;2022-12-07T12:19:16;23.23;;;9.73;;
17812;SDS011;9030;50.792;8.320;2022-12-07T12:21:44;18.10;;;9.63;;
17812;SDS011;9030;50.792;8.320;2022-12-07T12:24:14;17.60;;;9.63;;
17812;SDS011;9030;50.792;8.320;2022-12-07T12:26:48;17.37;;;8.43;;
17812;SDS011;9030;50.792;8.320;2022-12-07T12:29:19;19.67;;;7.07;;
17812;SDS011;9030;50.792;8.320;2022-12-07T12:35:01;18.10;;;7.90;;
17812;SDS011;9030;50.792;8.320;2022-12-07T12:37:41;18.43;;;7.77;;
17812;SDS011;9030;50.792;8.320;2022-12-07T12:42:56;22.77;;;10.43;;
17812;SDS011;9030;50.792;8.320;2022-12-07T12:45:24;24.20;;;7.40;;
17812;SDS011;9030;50.792;8.320;2022-12-07T12:47:53;18.17;;;5.80;;
17812;SDS011;9030;50.792;8.320;2022-12-07T12:50:23;15.23;;;5.17;;
17812;SDS011;9030;50.792;8.320;2022-12-07T12:52:54;9.47;;;4.23;;
17812;SDS011;9030;50.792;8.320;2022-12-07T12:58:31;10.63;;;4.00;;
17812;SDS011;9030;50.792;8.320;2022-12-07T13:06:35;15.73;;;6.13;;
17812;SDS011;9030;50.792;8.320;2022-12-07T13:09:04;20.33;;;9.37;;
17812;SDS011;9030;50.792;8.320;2022-12-07T13:11:43;17.20;;;6.60;;
17812;SDS011;9030;50.792;8.320;2022-12-07T13:16:59;13.83;;;6.67;;
17812;SDS011;9030;50.792;8.320;2022-12-07T13:25:11;13.50;;;6.37;;
17812;SDS011;9030;50.792;8.320;2022-12-07T13:27:41;15.33;;;6.20;;
17812;SDS011;9030;50.792;8.320;2022-12-07T13:30:26;18.47;;;6.43;;
17812;SDS011;9030;50.792;8.320;2022-12-07T13:32:55;12.40;;;4.87;;
17812;SDS011;9030;50.792;8.320;2022-12-07T13:35:33;14.53;;;5.20;;
17812;SDS011;9030;50.792;8.320;2022-12-07T13:38:02;11.07;;;4.67;;
17812;SDS011;9030;50.792;8.320;2022-12-07T13:40:32;11.63;;;4.27;;
17812;SDS011;9030;50.792;8.320;2022-12-07T13:43:00;13.03;;;4.50;;
17812;SDS011;9030;50.792;8.320;2022-12-07T13:45:28;12.30;;;4.33;;
17812;SDS011;9030;50.792;8.320;2022-12-07T13:48:24;14.53;;;4.70;;
17812;SDS011;9030;50.792;8.320;2022-12-07T13:50:54;15.10;;;5.67;;
17812;SDS011;9030;50.792;8.320;2022-12-07T13:53:22;12.63;;;5.43;;
17812;SDS011;9030;50.792;8.320;2022-12-07T13:55:50;8.80;;;4.37;;
17812;SDS011;9030;50.792;8.320;2022-12-07T13:58:19;12.80;;;6.77;;
17812;SDS011;9030;50.792;8.320;2022-12-07T14:00:46;18.13;;;6.77;;
17812;SDS011;9030;50.792;8.320;2022-12-07T14:03:28;13.40;;;6.27;;
17812;SDS011;9030;50.792;8.320;2022-12-07T14:06:19;15.93;;;5.57;;
17812;SDS011;9030;50.792;8.320;2022-12-07T14:11:38;12.33;;;5.20;;
17812;SDS011;9030;50.792;8.320;2022-12-07T14:14:20;12.13;;;6.23;;
17812;SDS011;9030;50.792;8.320;2022-12-07T14:17:01;17.67;;;6.73;;
17812;SDS011;9030;50.792;8.320;2022-12-07T14:19:46;16.83;;;6.77;;
17812;SDS011;9030;50.792;8.320;2022-12-07T14:22:41;19.53;;;11.33;;
17812;SDS011;9030;50.792;8.320;2022-12-07T14:25:18;18.37;;;8.63;;
17812;SDS011;9030;50.792;8.320;2022-12-07T14:27:56;14.87;;;7.10;;
17812;SDS011;9030;50.792;8.320;2022-12-07T14:30:24;15.90;;;8.00;;
17812;SDS011;9030;50.792;8.320;2022-12-07T14:35:38;15.00;;;8.63;;
17812;SDS011;9030;50.792;8.320;2022-12-07T14:38:05;23.40;;;10.43;;
17812;SDS011;9030;50.792;8.320;2022-12-07T14:40:32;35.67;;;20.70;;
17812;SDS011;9030;50.792;8.320;2022-12-07T14:43:05;18.70;;;12.27;;
17812;SDS011;9030;50.792;8.320;2022-12-07T14:45:52;15.77;;;8.60;;
17812;SDS011;9030;50.792;8.320;2022-12-07T14:51:26;20.10;;;9.23;;
17812;SDS011;9030;50.792;8.320;2022-12-07T14:53:53;17.83;;;9.77;;
17812;SDS011;9030;50.792;8.320;2022-12-07T14:56:20;18.60;;;11.13;;
17812;SDS011;9030;50.792;8.320;2022-12-07T14:58:54;15.93;;;9.80;;
17812;SDS011;9030;50.792;8.320;2022-12-07T15:01:39;22.30;;;11.10;;
17812;SDS011;9030;50.792;8.320;2022-12-07T15:04:06;17.30;;;11.17;;
17812;SDS011;9030;50.792;8.320;2022-12-07T15:06:33;15.70;;;8.07;;
17812;SDS011;9030;50.792;8.320;2022-12-07T15:09:01;23.03;;;14.30;;
17812;SDS011;9030;50.792;8.320;2022-12-07T15:11:28;21.07;;;15.13;;
17812;SDS011;9030;50.792;8.320;2022-12-07T15:13:58;16.97;;;10.53;;
17812;SDS011;9030;50.792;8.320;2022-12-07T15:19:19;17.60;;;9.00;;
17812;SDS011;9030;50.792;8.320;2022-12-07T15:21:48;18.07;;;9.20;;
17812;SDS011;9030;50.792;8.320;2022-12-07T15:24:16;15.97;;;9.10;;
17812;SDS011;9030;50.792;8.320;2022-12-07T15:26:45;22.13;;;14.23;;
17812;SDS011;9030;50.792;8.320;2022-12-07T15:29:14;23.47;;;18.83;;
17812;SDS011;9030;50.792;8.320;2022-12-07T15:31:42;27.67;;;20.73;;
17812;SDS011;9030;50.792;8.320;2022-12-07T15:34:10;22.37;;;18.53;;